»·PEaware :: N751LU KSIY-KTUS

N751LU :: KSIY-KTUS

FLIGHT INFORMATION

Flight Status: Arrived
Operator: Privately registered:
United States
More flights under this callsign
Pilot: Ewen S. (18928)
Aircraft: CANADAIR CL-600 CHALLENGER
(CL60)
More flights by this aircraft type
Origin: KSIY Siskiyou Co
United States
Destination: KTUS Tucson Intl
United States
More flights between these airports :: More routes between these airports
Route: MOG WNDEL J92 PXR DINGO5
File this flight plan on PilotEdge
Remarks:
Altitude:
(Current/Filed)
39,000ft
Speed:
(Current/Filed)
460kts
Departed: 29-Sep-23 12:28 PM
Arrived: 29-Sep-23 02:33 PM
Distance/Time
Traveled:
799nm/2:05
Distance/Time
To Go:
Arrived

Flight Plot

Page will automatically refresh every two minutes.

Flight plan parsing failed; only flown route is shown


Map Options




Map Legend


Flown Route
Filed Route
Departure Airport
Arrival Airport
Navaid (VOR, NDB)
Fix

Horizontal Profiles

Position Reports

Time Latitude Longitude Heading Altitude Ground
Speed
29-Sep-23 11:57 41.780846 -122.470773 101 2653ft 0kts
29-Sep-23 11:58 41.780846 -122.470773 101 2653ft 0kts
29-Sep-23 11:59 41.780846 -122.470773 101 2653ft 0kts
29-Sep-23 12:00 41.780846 -122.470773 101 2653ft 0kts
29-Sep-23 12:01 41.780846 -122.470773 101 2653ft 0kts
29-Sep-23 12:02 41.780846 -122.470773 101 2653ft 0kts
29-Sep-23 12:03 41.780846 -122.470773 101 2653ft 0kts
29-Sep-23 12:04 41.780846 -122.470773 101 2652ft 0kts
29-Sep-23 12:05 41.780846 -122.470773 101 2652ft 0kts
29-Sep-23 12:06 41.780846 -122.470773 101 2652ft 0kts
29-Sep-23 12:07 41.780846 -122.470773 101 2653ft 0kts
29-Sep-23 12:08 41.780846 -122.470773 101 2653ft 0kts
29-Sep-23 12:09 41.780846 -122.470773 101 2653ft 0kts
29-Sep-23 12:10 41.780846 -122.470773 101 2653ft 0kts
29-Sep-23 12:11 41.780846 -122.470773 101 2653ft 0kts
29-Sep-23 12:12 41.780846 -122.470773 101 2653ft 0kts
29-Sep-23 12:13 41.780846 -122.470773 101 2653ft 0kts
29-Sep-23 12:14 41.780846 -122.470773 101 2653ft 0kts
29-Sep-23 12:15 41.780846 -122.470773 101 2653ft 0kts
29-Sep-23 12:16 41.780846 -122.470773 101 2653ft 0kts
29-Sep-23 12:17 41.780846 -122.470773 101 2653ft 0kts
29-Sep-23 12:18 41.780846 -122.470773 101 2653ft 0kts
29-Sep-23 12:19 41.780846 -122.470773 101 2653ft 0kts
29-Sep-23 12:20 41.780846 -122.470773 101 2653ft 0kts
29-Sep-23 12:21 41.780846 -122.470773 101 2653ft 0kts
29-Sep-23 12:22 41.780846 -122.470773 101 2653ft 0kts
29-Sep-23 12:23 41.779430 -122.470615 191 2651ft 14kts
29-Sep-23 12:24 41.773296 -122.472282 192 2641ft 29kts
29-Sep-23 12:25 41.772796 -122.472359 145 2640ft 3kts
29-Sep-23 12:26 41.772644 -122.471507 100 2642ft 0kts
29-Sep-23 12:27 41.779331 -122.468765 11 2653ft 131kts
29-Sep-23 12:28 41.831563 -122.458420 7 6306ft 210kts
29-Sep-23 12:29 41.861526 -122.406203 125 10779ft 224kts
29-Sep-23 12:30 41.796449 -122.408865 219 13895ft 290kts
29-Sep-23 12:31 41.722904 -122.447766 171 18134ft 313kts
29-Sep-23 12:32 41.656695 -122.363564 133 21459ft 349kts
29-Sep-23 12:33 41.594624 -122.259445 134 24490ft 365kts
29-Sep-23 12:34 41.530184 -122.151811 135 27311ft 375kts
29-Sep-23 12:35 41.464187 -122.042050 136 29698ft 383kts
29-Sep-23 12:36 41.395836 -121.928789 137 31842ft 388kts
29-Sep-23 12:37 41.326361 -121.814212 139 33389ft 398kts
29-Sep-23 12:38 41.257058 -121.700244 138 34984ft 397kts
29-Sep-23 12:39 41.186618 -121.584993 138 36024ft 407kts
29-Sep-23 12:40 41.114431 -121.467254 137 37143ft 411kts
29-Sep-23 12:41 41.041591 -121.348907 138 38079ft 415kts
29-Sep-23 12:42 40.967637 -121.229214 137 38944ft 415kts
29-Sep-23 12:43 40.893786 -121.110255 137 39258ft 428kts
29-Sep-23 12:44 40.815525 -120.984730 137 39156ft 450kts
29-Sep-23 12:45 40.733921 -120.854252 137 39042ft 463kts
29-Sep-23 12:46 40.651733 -120.723254 138 39067ft 458kts
29-Sep-23 12:47 40.569656 -120.593079 138 39053ft 456kts
29-Sep-23 12:48 40.488524 -120.464967 138 39006ft 453kts
29-Sep-23 12:49 40.406381 -120.337576 144 38928ft 447kts
29-Sep-23 12:50 40.306509 -120.248562 158 38847ft 428kts
29-Sep-23 12:51 40.203764 -120.169044 158 38860ft 426kts
29-Sep-23 12:52 40.100703 -120.089621 158 38867ft 427kts
29-Sep-23 12:53 39.997758 -120.010542 159 38851ft 426kts
29-Sep-23 12:54 39.895205 -119.932075 158 38777ft 425kts
29-Sep-23 12:55 39.792341 -119.853656 158 38764ft 425kts
29-Sep-23 12:56 39.690042 -119.775938 158 38679ft 425kts
29-Sep-23 12:57 39.586511 -119.697553 158 38685ft 426kts
29-Sep-23 12:58 39.489962 -119.603563 144 38697ft 443kts
29-Sep-23 12:59 39.401722 -119.491316 144 38707ft 441kts
29-Sep-23 13:00 39.313115 -119.379177 144 38696ft 443kts
29-Sep-23 13:01 39.224354 -119.267305 144 38637ft 443kts
29-Sep-23 13:02 39.136063 -119.156492 144 38631ft 440kts
29-Sep-23 13:03 39.047839 -119.046213 144 38687ft 441kts
29-Sep-23 13:04 38.958771 -118.935292 143 38628ft 443kts
29-Sep-23 13:05 38.869816 -118.824886 143 38633ft 443kts
29-Sep-23 13:06 38.780427 -118.714327 144 38638ft 442kts
29-Sep-23 13:07 38.691868 -118.605227 143 38669ft 441kts
29-Sep-23 13:08 38.602622 -118.495693 143 38611ft 442kts
29-Sep-23 13:09 38.513357 -118.386511 143 38609ft 441kts
29-Sep-23 13:10 38.424087 -118.277734 143 38619ft 443kts
29-Sep-23 13:11 38.334043 -118.168406 143 38640ft 444kts
29-Sep-23 13:12 38.244137 -118.059629 143 38601ft 444kts
29-Sep-23 13:13 38.154272 -117.951296 143 38586ft 445kts
29-Sep-23 13:14 38.063852 -117.842680 143 38648ft 445kts
29-Sep-23 13:15 37.969644 -117.740517 152 38647ft 437kts
29-Sep-23 13:16 37.868478 -117.653247 152 38654ft 438kts
29-Sep-23 13:17 37.766988 -117.565863 151 38655ft 440kts
29-Sep-23 13:18 37.664787 -117.478111 151 38583ft 441kts
29-Sep-23 13:19 37.562815 -117.390825 151 38599ft 442kts
29-Sep-23 13:20 37.460385 -117.303426 151 38673ft 442kts
29-Sep-23 13:21 37.357673 -117.216068 151 38678ft 442kts
29-Sep-23 13:22 37.254922 -117.128971 151 38677ft 443kts
29-Sep-23 13:23 37.151714 -117.041774 151 38667ft 445kts
29-Sep-23 13:24 37.048670 -116.955003 151 38671ft 445kts
29-Sep-23 13:25 36.945116 -116.868101 151 38610ft 446kts
29-Sep-23 13:26 36.842257 -116.781047 147 38649ft 449kts
29-Sep-23 13:27 36.762706 -116.656602 122 38627ft 468kts
29-Sep-23 13:28 36.702205 -116.511262 122 38634ft 468kts
29-Sep-23 13:29 36.641673 -116.366686 122 38630ft 467kts
29-Sep-23 13:30 36.581063 -116.222620 122 38601ft 468kts
29-Sep-23 13:31 36.520340 -116.078935 122 38612ft 468kts
29-Sep-23 13:32 36.459370 -115.935310 122 38540ft 467kts
29-Sep-23 13:33 36.398522 -115.792599 122 38596ft 466kts
29-Sep-23 13:34 36.337455 -115.650014 122 38568ft 467kts
29-Sep-23 13:35 36.275839 -115.506745 122 38562ft 467kts
29-Sep-23 13:36 36.214345 -115.364401 122 38553ft 467kts
29-Sep-23 13:37 36.152642 -115.222176 122 38551ft 465kts
29-Sep-23 13:39 36.090932 -115.080546 122 38551ft 465kts
29-Sep-23 13:40 36.028994 -114.939005 122 38557ft 466kts
29-Sep-23 13:41 35.963386 -114.800881 127 38555ft 463kts
29-Sep-23 13:42 35.892876 -114.667191 127 38549ft 462kts
29-Sep-23 13:43 35.822122 -114.533403 126 38557ft 462kts
29-Sep-23 13:44 35.751581 -114.400456 126 38572ft 462kts
29-Sep-23 13:45 35.680805 -114.267511 127 38664ft 460kts
29-Sep-23 13:46 35.609959 -114.134948 127 38640ft 461kts
29-Sep-23 13:47 35.538964 -114.002592 127 38676ft 463kts
29-Sep-23 13:48 35.467784 -113.870395 127 38709ft 462kts
29-Sep-23 13:49 35.396590 -113.738681 127 38723ft 460kts
29-Sep-23 13:50 35.325325 -113.607343 126 38748ft 461kts
29-Sep-23 13:51 35.253817 -113.476055 126 38761ft 461kts
29-Sep-23 13:52 35.182191 -113.345022 127 38798ft 459kts
29-Sep-23 13:53 35.110704 -113.214744 127 38860ft 459kts
29-Sep-23 13:54 35.039058 -113.084660 126 38853ft 459kts
29-Sep-23 13:55 34.967468 -112.955170 126 38856ft 459kts
29-Sep-23 13:56 34.895370 -112.825300 126 38844ft 459kts
29-Sep-23 13:57 34.823017 -112.695386 126 38858ft 458kts
29-Sep-23 13:58 34.751075 -112.566772 127 38898ft 458kts
29-Sep-23 13:59 34.656878 -112.465564 155 38890ft 448kts
29-Sep-23 13:59 34.559036 -112.421806 163 38869ft 446kts
29-Sep-23 14:01 34.420843 -112.365669 163 38829ft 445kts
29-Sep-23 14:02 34.302610 -112.317812 164 38847ft 446kts
29-Sep-23 14:03 34.184178 -112.270024 164 38777ft 446kts
29-Sep-23 14:04 34.065442 -112.222259 163 38739ft 446kts
29-Sep-23 14:04 33.966819 -112.182692 164 38797ft 445kts
29-Sep-23 14:05 33.847615 -112.135007 164 38788ft 448kts
29-Sep-23 14:07 33.708456 -112.079509 164 38785ft 447kts
29-Sep-23 14:08 33.589374 -112.032171 164 38781ft 447kts
29-Sep-23 14:08 33.489810 -111.992697 164 38382ft 445kts
29-Sep-23 14:09 33.370862 -111.963155 177 36178ft 427kts
29-Sep-23 14:11 33.236226 -111.948025 177 33597ft 414kts
29-Sep-23 14:12 33.121892 -111.935202 177 31164ft 405kts
29-Sep-23 14:12 33.028413 -111.924735 177 29093ft 398kts
29-Sep-23 14:13 32.918744 -111.912479 177 26606ft 387kts
29-Sep-23 14:14 32.835421 -111.838075 128 24107ft 400kts
29-Sep-23 14:15 32.747565 -111.769532 154 21716ft 368kts
29-Sep-23 14:16 32.660068 -111.709931 153 19308ft 356kts
29-Sep-23 14:17 32.575528 -111.649528 151 16814ft 348kts
29-Sep-23 14:18 32.509165 -111.566049 130 14268ft 348kts
29-Sep-23 14:19 32.455014 -111.480015 130 13593ft 312kts
29-Sep-23 14:20 32.403839 -111.399063 130 12083ft 300kts
29-Sep-23 14:21 32.352684 -111.321162 134 11511ft 297kts
29-Sep-23 14:22 32.300475 -111.249700 134 10240ft 275kts
29-Sep-23 14:23 32.251831 -111.183133 134 9524ft 262kts
29-Sep-23 14:24 32.204472 -111.117465 134 9487ft 264kts
29-Sep-23 14:25 32.156103 -111.050356 134 7904ft 264kts
29-Sep-23 14:26 32.107778 -110.983791 134 6099ft 264kts
29-Sep-23 14:27 32.060009 -110.917649 134 4615ft 250kts
29-Sep-23 14:28 32.023354 -110.865272 129 4113ft 155kts
29-Sep-23 14:29 32.044830 -110.848637 297 3432ft 134kts
29-Sep-23 14:30 32.069376 -110.882550 301 3475ft 134kts
29-Sep-23 14:31 32.095491 -110.915396 309 2862ft 135kts
29-Sep-23 14:32 32.114962 -110.938055 319 2601ft 24kts
29-Sep-23 14:33 32.118177 -110.939290 312 2601ft 10kts
29-Sep-23 14:34 32.120610 -110.942198 312 2601ft 14kts
29-Sep-23 14:35 32.124587 -110.946849 317 2601ft 21kts
29-Sep-23 14:36 32.125957 -110.945148 162 2601ft 9kts

Navigation Log

Ident Type
Flight plan parsing failed, navigation log unavailable